createdAt,value
2023-03-17T00:01:53.874Z,100019.00
2023-03-17T00:04:21.830Z,100022.88
2023-03-17T00:06:49.098Z,100023.54
2023-03-17T00:09:19.398Z,100025.83
2023-03-17T00:11:47.427Z,100025.66
2023-03-17T00:14:17.111Z,100031.48
2023-03-17T00:16:46.107Z,100029.12
2023-03-17T00:19:23.771Z,100033.36
2023-03-17T00:21:52.585Z,100031.82
2023-03-17T00:24:19.650Z,100032.48
2023-03-17T00:26:46.654Z,100030.61
2023-03-17T00:29:13.400Z,100034.33
2023-03-17T00:31:40.496Z,100036.30
2023-03-17T00:34:16.100Z,100033.95
2023-03-17T00:36:43.959Z,100039.95
2023-03-17T00:41:39.940Z,100042.58
2023-03-17T00:44:06.656Z,100043.28
2023-03-17T00:46:37.554Z,100042.60
2023-03-17T00:49:19.068Z,100040.98
2023-03-17T00:51:46.507Z,100043.37
2023-03-17T00:54:15.255Z,100042.00
2023-03-17T00:56:42.084Z,100038.45
2023-03-17T00:59:34.797Z,100036.13
2023-03-17T01:02:01.473Z,100038.14
2023-03-17T01:04:29.035Z,100035.74
2023-03-17T01:06:57.920Z,100037.58
2023-03-17T01:09:25.660Z,100039.78
2023-03-17T01:11:52.463Z,100035.89
2023-03-17T01:14:19.050Z,100036.46
2023-03-17T01:16:47.111Z,100038.38
2023-03-17T01:19:14.779Z,100035.75
2023-03-17T01:21:41.982Z,100037.98
2023-03-17T01:24:08.897Z,100044.70
2023-03-17T01:26:35.938Z,100053.76
2023-03-17T01:29:04.291Z,100050.90
2023-03-17T01:31:30.989Z,100054.14
2023-03-17T01:34:05.647Z,100054.24
2023-03-17T01:36:32.327Z,100054.90
2023-03-17T01:38:59.950Z,100058.84
2023-03-17T01:41:26.740Z,100053.64
2023-03-17T01:43:53.965Z,100056.92
2023-03-17T01:46:32.110Z,100056.52
2023-03-17T01:49:06.222Z,100063.30
2023-03-17T01:51:40.367Z,100061.02
2023-03-17T01:54:16.547Z,100057.00
2023-03-17T01:56:45.061Z,100061.46
2023-03-17T01:59:16.053Z,100058.88
2023-03-17T02:01:44.532Z,100064.80
2023-03-17T02:04:11.540Z,100064.52
2023-03-17T02:06:55.095Z,100068.30
2023-03-17T02:09:28.705Z,100073.94
2023-03-17T02:11:56.344Z,100070.86
2023-03-17T02:14:23.368Z,100072.37
2023-03-17T02:16:50.869Z,100076.05
2023-03-17T02:19:18.776Z,100076.97
2023-03-17T02:21:47.043Z,100083.90
2023-03-17T02:24:27.621Z,100086.84
2023-03-17T02:26:56.412Z,100084.81
2023-03-17T02:29:30.119Z,100086.58
2023-03-17T02:31:57.478Z,100087.41
2023-03-17T02:34:24.119Z,100092.25
2023-03-17T02:36:52.638Z,100097.45
2023-03-17T02:39:19.412Z,100097.98
2023-03-17T02:41:49.436Z,100097.54
2023-03-17T02:44:16.506Z,100098.35
2023-03-17T02:46:43.636Z,100101.98
2023-03-17T02:49:11.325Z,100107.54
2023-03-17T02:51:38.284Z,100110.14
2023-03-17T02:54:05.250Z,100108.41
2023-03-17T02:56:32.638Z,100110.55
2023-03-17T02:59:01.958Z,100112.33
2023-03-17T03:01:30.181Z,100111.44
2023-03-17T03:03:57.666Z,100114.75
2023-03-17T03:06:24.339Z,100116.11
2023-03-17T03:08:51.178Z,100117.55
2023-03-17T03:11:18.690Z,100118.20
2023-03-17T03:13:46.022Z,100116.64
2023-03-17T03:16:12.695Z,100115.76
2023-03-17T03:18:40.785Z,100118.80
2023-03-17T03:21:09.024Z,100120.88
2023-03-17T03:23:35.615Z,100118.79
2023-03-17T03:26:07.196Z,100119.58
2023-03-17T03:28:35.835Z,100125.05
2023-03-17T03:31:03.104Z,100131.06
2023-03-17T03:33:31.179Z,100129.23
2023-03-17T03:35:58.661Z,100133.17
2023-03-17T03:38:26.879Z,100138.45
2023-03-17T03:40:53.848Z,100135.95
2023-03-17T03:43:23.736Z,100138.83
2023-03-17T03:45:51.391Z,100141.64
2023-03-17T03:48:18.357Z,100144.01
2023-03-17T03:50:46.232Z,100145.45
2023-03-17T03:53:14.716Z,100139.85
2023-03-17T03:55:42.249Z,100143.77
2023-03-17T03:58:12.109Z,100147.39
2023-03-17T04:00:38.624Z,100148.80
2023-03-17T04:03:06.121Z,100152.20
2023-03-17T04:05:32.963Z,100155.20
2023-03-17T04:08:01.729Z,100156.59
2023-03-17T04:10:28.994Z,100159.34
2023-03-17T04:12:55.863Z,100164.91
2023-03-17T04:15:24.663Z,100161.35
2023-03-17T04:17:51.434Z,100166.48
2023-03-17T04:20:18.216Z,100171.15
2023-03-17T04:22:46.491Z,100171.11
2023-03-17T04:25:13.840Z,100174.98
2023-03-17T04:27:41.845Z,100177.75
2023-03-17T04:30:13.177Z,100180.70
2023-03-17T04:32:41.152Z,100186.11
2023-03-17T04:35:11.231Z,100186.44
2023-03-17T04:37:38.693Z,100189.64
2023-03-17T04:40:10.729Z,100192.30
2023-03-17T04:42:38.595Z,100196.13
2023-03-17T04:45:06.166Z,100200.89
2023-03-17T04:47:33.932Z,100200.08
2023-03-17T04:50:01.558Z,100204.89
2023-03-17T04:52:28.520Z,100207.20
2023-03-17T04:54:56.268Z,100203.39
2023-03-17T04:57:24.342Z,100209.19
2023-03-17T04:59:51.151Z,100211.94
2023-03-17T05:02:18.253Z,100212.73
2023-03-17T05:04:52.915Z,100218.54
2023-03-17T05:07:20.276Z,100219.42
2023-03-17T05:09:47.558Z,100220.10
2023-03-17T05:12:15.932Z,100220.02
2023-03-17T05:14:42.502Z,100224.19
2023-03-17T05:17:10.348Z,100226.16
2023-03-17T05:19:38.978Z,100229.39
2023-03-17T05:22:05.998Z,100229.76
2023-03-17T05:24:32.858Z,100231.45
2023-03-17T05:27:00.439Z,100230.66
2023-03-17T05:29:27.195Z,100232.84
2023-03-17T05:31:54.145Z,100239.77
2023-03-17T05:34:20.747Z,100241.53
2023-03-17T05:36:47.405Z,100243.09
2023-03-17T05:39:14.853Z,100244.29
2023-03-17T05:41:42.040Z,100248.00
2023-03-17T05:44:13.881Z,100247.92
2023-03-17T05:46:43.440Z,100248.00
2023-03-17T05:49:10.164Z,100253.30
2023-03-17T05:51:38.983Z,100254.88
2023-03-17T05:54:05.501Z,100252.31
2023-03-17T05:56:34.124Z,100248.44
2023-03-17T05:59:01.103Z,100258.55
2023-03-17T06:01:31.898Z,100259.41
2023-03-17T06:04:01.259Z,100261.23
2023-03-17T06:06:28.215Z,100260.35
2023-03-17T06:08:55.595Z,100264.96
2023-03-17T06:11:22.267Z,100264.45
2023-03-17T06:13:51.011Z,100265.55
2023-03-17T06:16:17.735Z,100274.94
2023-03-17T06:18:45.644Z,100275.95
2023-03-17T06:21:12.944Z,100278.30
2023-03-17T06:23:45.663Z,100281.32
2023-03-17T06:26:18.177Z,100280.73
2023-03-17T06:28:46.307Z,100281.31
2023-03-17T06:31:13.065Z,100282.70
2023-03-17T06:33:39.944Z,100288.06
2023-03-17T06:36:07.550Z,100289.81
2023-03-17T06:38:34.381Z,100294.39
2023-03-17T06:41:01.849Z,100291.92
2023-03-17T06:43:31.472Z,100295.27
2023-03-17T06:46:06.603Z,100297.54
2023-03-17T06:48:34.657Z,100295.48
2023-03-17T06:51:02.022Z,100293.21
2023-03-17T06:53:28.889Z,100292.41
2023-03-17T06:55:55.757Z,100299.27
2023-03-17T06:58:23.263Z,100295.61
2023-03-17T07:00:53.438Z,100299.90
2023-03-17T07:03:21.861Z,100296.19
2023-03-17T07:05:49.440Z,100298.13
2023-03-17T07:08:17.307Z,100301.30
2023-03-17T07:10:45.316Z,100299.30
2023-03-17T07:13:14.171Z,100303.25
2023-03-17T07:15:41.338Z,100305.67
2023-03-17T07:18:09.262Z,100306.50
2023-03-17T07:20:37.620Z,100309.05
2023-03-17T07:23:04.538Z,100312.17
2023-03-17T07:25:32.081Z,100307.63
2023-03-17T07:27:59.202Z,100312.86
2023-03-17T07:30:28.004Z,100311.87
2023-03-17T07:32:54.949Z,100313.09
2023-03-17T07:35:22.863Z,100316.59
2023-03-17T07:37:49.913Z,100319.46
2023-03-17T07:40:18.197Z,100321.30
2023-03-17T07:42:49.308Z,100317.58
2023-03-17T07:45:16.162Z,100322.27
2023-03-17T07:47:43.005Z,100320.80
2023-03-17T07:50:10.462Z,100323.11
2023-03-17T07:55:11.953Z,100326.61
2023-03-17T07:57:39.118Z,100322.89
2023-03-17T08:00:10.037Z,100328.00
2023-03-17T08:02:40.464Z,100327.43
2023-03-17T08:05:08.022Z,100331.91
2023-03-17T08:07:37.158Z,100327.95
2023-03-17T08:10:05.390Z,100328.87
2023-03-17T08:12:32.712Z,100335.68
2023-03-17T08:15:03.338Z,100337.31
2023-03-17T08:17:31.480Z,100338.74
2023-03-17T08:19:59.848Z,100338.52
2023-03-17T08:22:32.964Z,100345.90
2023-03-17T08:24:59.915Z,100347.77
2023-03-17T08:27:26.845Z,100347.91
2023-03-17T08:29:58.462Z,100349.18
2023-03-17T08:32:26.400Z,100345.31
2023-03-17T08:34:58.344Z,100350.73
2023-03-17T08:37:26.420Z,100351.88
2023-03-17T08:39:53.760Z,100356.29
2023-03-17T08:42:21.037Z,100359.46
2023-03-17T08:44:49.049Z,100361.77
2023-03-17T08:47:25.265Z,100362.19
2023-03-17T08:49:52.898Z,100359.92
2023-03-17T08:52:20.012Z,100364.10
2023-03-17T08:54:46.909Z,100368.55
2023-03-17T08:57:15.686Z,100369.46
2023-03-17T08:59:43.150Z,100371.63
2023-03-17T09:02:14.314Z,100373.94
2023-03-17T09:04:41.149Z,100371.98
2023-03-17T09:07:10.045Z,100375.98
2023-03-17T09:09:37.093Z,100377.05
2023-03-17T09:12:05.563Z,100374.81
2023-03-17T09:14:42.744Z,100377.56
2023-03-17T09:17:10.813Z,100376.56
2023-03-17T09:19:38.176Z,100376.58
2023-03-17T09:22:05.428Z,100375.91
2023-03-17T09:24:33.017Z,100374.70
2023-03-17T09:27:05.723Z,100378.71
2023-03-17T09:29:33.571Z,100380.70
2023-03-17T09:32:01.003Z,100381.88
2023-03-17T09:34:29.203Z,100386.75
2023-03-17T09:36:56.534Z,100381.50
2023-03-17T09:39:23.920Z,100385.25
2023-03-17T09:41:58.239Z,100388.13
2023-03-17T09:44:41.150Z,100395.01
2023-03-17T09:47:17.764Z,100392.06
2023-03-17T09:49:48.054Z,100393.33
2023-03-17T09:52:18.920Z,100390.15
2023-03-17T09:54:49.581Z,100395.45
2023-03-17T09:57:20.655Z,100397.45
2023-03-17T09:59:50.229Z,100400.62
2023-03-17T10:02:27.966Z,100401.22
2023-03-17T10:04:55.474Z,100403.55
2023-03-17T10:07:39.131Z,100403.80
2023-03-17T10:10:20.955Z,100401.08
2023-03-17T10:13:07.926Z,100398.35
2023-03-17T10:15:40.536Z,100400.26
2023-03-17T10:18:09.605Z,100404.02
2023-03-17T10:20:38.993Z,100406.36
2023-03-17T10:23:06.957Z,100410.25
2023-03-17T10:25:35.547Z,100412.54
2023-03-17T10:28:23.028Z,100410.94
2023-03-17T10:30:50.935Z,100415.17
2023-03-17T10:33:18.160Z,100413.90
2023-03-17T10:35:46.277Z,100415.13
2023-03-17T10:38:20.363Z,100415.77
2023-03-17T10:40:59.589Z,100415.80
2023-03-17T10:43:30.526Z,100416.98
2023-03-17T10:46:00.968Z,100418.23
2023-03-17T10:48:28.722Z,100417.41
2023-03-17T10:50:57.736Z,100418.10
2023-03-17T10:53:27.956Z,100419.35
2023-03-17T10:56:25.486Z,100420.59
2023-03-17T10:58:54.398Z,100423.60
2023-03-17T11:01:39.761Z,100422.77
2023-03-17T11:04:33.717Z,100424.52
2023-03-17T11:07:12.298Z,100427.30
2023-03-17T11:09:38.984Z,100423.88
2023-03-17T11:12:32.173Z,100430.67
2023-03-17T11:15:09.571Z,100429.69
2023-03-17T11:17:40.754Z,100433.09
2023-03-17T11:20:41.678Z,100434.79
2023-03-17T11:23:21.785Z,100433.14
2023-03-17T11:26:04.753Z,100429.51
2023-03-17T11:28:35.541Z,100428.42
2023-03-17T11:31:09.943Z,100433.11
2023-03-17T11:34:01.885Z,100430.53
2023-03-17T11:36:35.584Z,100428.98
2023-03-17T11:39:27.816Z,100434.42
2023-03-17T11:42:42.414Z,100434.34
2023-03-17T11:45:12.686Z,100439.23
2023-03-17T11:48:07.675Z,100443.17
2023-03-17T11:50:38.820Z,100442.30
2023-03-17T11:53:31.165Z,100445.73
2023-03-17T11:56:06.661Z,100446.38
2023-03-17T11:58:47.770Z,100451.33
2023-03-17T12:01:17.693Z,100448.63
2023-03-17T12:03:49.624Z,100450.86
2023-03-17T12:06:34.428Z,100448.89
2023-03-17T12:09:10.615Z,100454.16
2023-03-17T12:11:39.995Z,100456.64
2023-03-17T12:14:31.953Z,100456.66
2023-03-17T12:17:04.709Z,100458.17
2023-03-17T12:20:09.978Z,100460.31
2023-03-17T12:23:10.501Z,100461.99
2023-03-17T12:25:51.380Z,100463.02
2023-03-17T12:28:22.469Z,100465.92
2023-03-17T12:31:04.018Z,100467.30
2023-03-17T12:33:46.502Z,100474.88
2023-03-17T12:36:14.815Z,100474.53
2023-03-17T12:38:44.794Z,100479.27
2023-03-17T12:41:56.172Z,100480.92
2023-03-17T12:44:45.423Z,100481.36
2023-03-17T12:47:42.907Z,100485.76
2023-03-17T12:51:05.430Z,100481.71
2023-03-17T12:53:35.113Z,100482.45
2023-03-17T12:56:21.625Z,100479.17
2023-03-17T12:58:50.550Z,100478.26
2023-03-17T13:01:37.470Z,100481.67
2023-03-17T13:04:26.552Z,100484.95
2023-03-17T13:06:57.710Z,100484.38
2023-03-17T13:09:31.848Z,100486.11
2023-03-17T13:11:59.611Z,100485.66
2023-03-17T13:14:42.705Z,100490.94
2023-03-17T13:17:11.910Z,100492.60
2023-03-17T13:19:48.088Z,100494.02
2023-03-17T13:22:21.166Z,100493.34
2023-03-17T13:24:53.270Z,100493.29
2023-03-17T13:27:29.424Z,100487.55
2023-03-17T13:30:21.819Z,100487.67
2023-03-17T13:32:56.669Z,100492.48
2023-03-17T13:35:47.278Z,100490.67
2023-03-17T13:38:36.755Z,100488.95
2023-03-17T13:41:06.286Z,100494.19
2023-03-17T13:43:49.744Z,100496.42
2023-03-17T13:46:33.366Z,100499.39
2023-03-17T13:49:19.376Z,100501.63
2023-03-17T13:52:00.399Z,100509.23
2023-03-17T13:54:30.420Z,100512.25
2023-03-17T13:57:26.009Z,100514.53
2023-03-17T14:00:21.154Z,100516.39
2023-03-17T14:02:49.872Z,100516.63
2023-03-17T14:05:24.073Z,100522.14
2023-03-17T14:08:00.664Z,100524.38
2023-03-17T14:10:31.439Z,100521.75
2023-03-17T14:13:31.009Z,100519.09
2023-03-17T14:16:20.272Z,100521.61
2023-03-17T14:18:58.678Z,100524.58
2023-03-17T14:21:35.541Z,100529.39
2023-03-17T14:24:17.753Z,100531.48
2023-03-17T14:26:47.719Z,100529.48
2023-03-17T14:29:15.216Z,100533.80
2023-03-17T14:31:49.191Z,100530.88
2023-03-17T14:34:17.010Z,100531.16
2023-03-17T14:36:44.349Z,100530.93
2023-03-17T14:39:22.615Z,100532.45
2023-03-17T14:42:01.092Z,100534.53
2023-03-17T14:44:34.834Z,100536.96
2023-03-17T14:47:10.693Z,100540.86
2023-03-17T14:49:39.354Z,100544.21
2023-03-17T14:52:26.459Z,100544.21
2023-03-17T14:54:54.919Z,100544.84
2023-03-17T14:57:26.598Z,100542.41
2023-03-17T15:00:22.033Z,100541.44
2023-03-17T15:02:59.556Z,100541.70
2023-03-17T15:05:37.680Z,100544.64
2023-03-17T15:08:36.083Z,100549.89
2023-03-17T15:11:04.341Z,100556.89
2023-03-17T15:13:34.248Z,100555.73
2023-03-17T15:16:15.957Z,100555.84
2023-03-17T15:18:44.219Z,100552.86
2023-03-17T15:21:34.483Z,100548.45
2023-03-17T15:24:27.106Z,100550.41
2023-03-17T15:27:20.726Z,100556.11
2023-03-17T15:29:50.345Z,100559.21
2023-03-17T15:32:20.274Z,100559.13
2023-03-17T15:34:48.227Z,100564.16
2023-03-17T15:37:23.633Z,100564.58
2023-03-17T15:39:52.521Z,100567.81
2023-03-17T15:42:21.198Z,100572.17
2023-03-17T15:44:48.154Z,100571.46
2023-03-17T15:47:16.756Z,100572.69
2023-03-17T15:49:44.714Z,100573.75
2023-03-17T15:52:24.770Z,100578.54
2023-03-17T15:54:58.656Z,100583.41
2023-03-17T15:57:26.634Z,100587.69
2023-03-17T15:59:55.405Z,100588.98
2023-03-17T16:02:33.285Z,100594.27
2023-03-17T16:05:01.777Z,100594.71
2023-03-17T16:07:30.295Z,100597.53
2023-03-17T16:09:57.069Z,100597.52
2023-03-17T16:12:24.837Z,100599.26
2023-03-17T16:14:54.720Z,100597.27
2023-03-17T16:17:28.874Z,100603.42
2023-03-17T16:19:56.270Z,100603.09
2023-03-17T16:22:39.089Z,100600.99
2023-03-17T16:25:29.596Z,100604.27
2023-03-17T16:27:59.396Z,100605.20
2023-03-17T16:30:31.495Z,100610.65
2023-03-17T16:33:11.796Z,100613.76
2023-03-17T16:35:41.501Z,100613.48
2023-03-17T16:38:11.488Z,100613.20
2023-03-17T16:40:42.321Z,100615.98
2023-03-17T16:43:32.342Z,100620.79
2023-03-17T16:46:00.585Z,100618.98
2023-03-17T16:48:30.500Z,100624.52
2023-03-17T16:50:57.870Z,100621.05
2023-03-17T16:53:24.976Z,100626.34
2023-03-17T16:55:53.036Z,100626.02
2023-03-17T16:58:25.950Z,100628.11
2023-03-17T17:00:58.388Z,100628.98
2023-03-17T17:03:26.109Z,100628.81
2023-03-17T17:05:54.856Z,100633.48
2023-03-17T17:08:22.257Z,100640.29
2023-03-17T17:10:49.680Z,100640.09
2023-03-17T17:13:17.688Z,100645.83
2023-03-17T17:15:44.370Z,100641.92
2023-03-17T17:18:16.101Z,100642.88
2023-03-17T17:20:49.344Z,100643.20
2023-03-17T17:23:21.386Z,100644.54
2023-03-17T17:25:49.913Z,100644.23
2023-03-17T17:28:22.133Z,100647.31
2023-03-17T17:30:52.431Z,100653.96
2023-03-17T17:33:26.289Z,100652.56
2023-03-17T17:35:53.820Z,100652.23
2023-03-17T17:38:28.079Z,100651.17
2023-03-17T17:40:56.590Z,100654.78
2023-03-17T17:43:24.350Z,100654.38
2023-03-17T17:45:55.356Z,100651.64
2023-03-17T17:48:23.802Z,100653.16
2023-03-17T17:50:51.142Z,100654.84
2023-03-17T17:53:18.896Z,100656.91
2023-03-17T17:55:47.805Z,100654.77
2023-03-17T17:58:17.750Z,100654.70
2023-03-17T18:00:44.956Z,100660.69
2023-03-17T18:03:11.590Z,100659.41
2023-03-17T18:05:39.792Z,100664.88
2023-03-17T18:08:06.774Z,100670.23
2023-03-17T18:10:38.210Z,100670.88
2023-03-17T18:13:05.060Z,100672.65
2023-03-17T18:15:31.896Z,100671.54
2023-03-17T18:18:03.740Z,100674.73
2023-03-17T18:20:31.399Z,100672.55
2023-03-17T18:22:58.472Z,100674.45
2023-03-17T18:25:26.611Z,100674.51
2023-03-17T18:27:55.808Z,100672.36
2023-03-17T18:30:28.130Z,100674.00
2023-03-17T18:32:57.880Z,100676.23
2023-03-17T18:35:25.503Z,100671.34
2023-03-17T18:37:53.284Z,100675.83
2023-03-17T18:40:20.646Z,100673.17
2023-03-17T18:42:47.426Z,100677.86
2023-03-17T18:45:16.429Z,100681.02
2023-03-17T18:47:44.623Z,100676.38
2023-03-17T18:50:14.939Z,100681.80
2023-03-17T18:52:43.427Z,100682.98
2023-03-17T18:55:11.990Z,100683.07
2023-03-17T18:57:39.217Z,100682.67
2023-03-17T19:00:07.953Z,100685.81
2023-03-17T19:02:38.749Z,100684.53
2023-03-17T19:05:06.994Z,100686.95
2023-03-17T19:07:35.041Z,100685.70
2023-03-17T19:10:04.021Z,100686.27
2023-03-17T19:12:31.380Z,100684.34
2023-03-17T19:14:59.556Z,100687.41
2023-03-17T19:17:28.154Z,100685.69
2023-03-17T19:19:55.207Z,100686.98
2023-03-17T19:22:23.190Z,100687.61
2023-03-17T19:24:50.317Z,100684.11
2023-03-17T19:27:17.531Z,100687.86
2023-03-17T19:29:48.680Z,100685.20
2023-03-17T19:32:16.618Z,100687.48
2023-03-17T19:34:43.366Z,100685.95
2023-03-17T19:37:10.488Z,100689.06
2023-03-17T19:39:44.341Z,100682.17
2023-03-17T19:42:12.058Z,100681.63
2023-03-17T19:44:40.135Z,100680.63
2023-03-17T19:47:12.319Z,100681.36
2023-03-17T19:49:39.571Z,100675.62
2023-03-17T19:52:07.687Z,100675.37
2023-03-17T19:54:37.672Z,100668.70
2023-03-17T19:57:05.303Z,100673.13
2023-03-17T19:59:32.888Z,100672.52
2023-03-17T20:02:00.302Z,100672.65
2023-03-17T20:04:27.304Z,100672.20
2023-03-17T20:06:57.340Z,100677.83
2023-03-17T20:09:26.498Z,100681.48
2023-03-17T20:12:38.308Z,100681.94
2023-03-17T20:15:07.842Z,100685.67
2023-03-17T20:17:36.867Z,100685.59
2023-03-17T20:20:10.783Z,100685.09
2023-03-17T20:22:40.422Z,100682.20
2023-03-17T20:25:10.394Z,100684.05
2023-03-17T20:27:40.481Z,100684.01
2023-03-17T20:30:12.415Z,100680.63
2023-03-17T20:32:40.702Z,100676.23
2023-03-17T20:35:09.711Z,100675.10
2023-03-17T20:37:38.835Z,100674.06
2023-03-17T20:40:13.837Z,100673.66
2023-03-17T20:42:42.392Z,100674.84
2023-03-17T20:45:10.431Z,100674.85
2023-03-17T20:47:41.628Z,100670.30
2023-03-17T20:50:10.244Z,100669.80
2023-03-17T20:52:39.853Z,100666.81
2023-03-17T20:55:09.597Z,100668.93
2023-03-17T20:57:38.156Z,100668.38
2023-03-17T21:00:10.429Z,100669.92
2023-03-17T21:02:39.040Z,100666.17
2023-03-17T21:05:08.501Z,100669.20
2023-03-17T21:07:37.496Z,100672.45
2023-03-17T21:10:06.155Z,100675.23
2023-03-17T21:12:34.390Z,100678.21
2023-03-17T21:15:03.800Z,100677.75
2023-03-17T21:17:32.974Z,100679.79
2023-03-17T21:20:03.406Z,100681.73
2023-03-17T21:22:34.524Z,100681.88
2023-03-17T21:25:05.424Z,100681.90
2023-03-17T21:27:37.095Z,100683.18
2023-03-17T21:30:12.376Z,100686.00
2023-03-17T21:32:45.113Z,100682.63
2023-03-17T21:35:13.590Z,100687.35
2023-03-17T21:37:41.807Z,100688.20
2023-03-17T21:40:12.800Z,100685.77
2023-03-17T21:42:42.024Z,100686.30
2023-03-17T21:45:10.802Z,100688.64
2023-03-17T21:47:41.945Z,100691.52
2023-03-17T21:50:11.183Z,100690.37
2023-03-17T21:52:41.134Z,100686.98
2023-03-17T21:55:10.424Z,100687.85
2023-03-17T21:57:40.295Z,100685.20
2023-03-17T22:00:09.759Z,100681.41
2023-03-17T22:02:46.325Z,100682.51
2023-03-17T22:05:14.569Z,100681.60
2023-03-17T22:07:43.895Z,100684.79
2023-03-17T22:10:11.994Z,100687.75
2023-03-17T22:12:40.321Z,100688.84
2023-03-17T22:15:10.497Z,100688.20
2023-03-17T22:17:39.816Z,100689.54
2023-03-17T22:20:09.224Z,100691.52
2023-03-17T22:22:38.589Z,100690.16
2023-03-17T22:25:07.403Z,100689.25
2023-03-17T22:27:35.757Z,100688.80
2023-03-17T22:30:06.786Z,100691.31
2023-03-17T22:32:36.166Z,100694.67
2023-03-17T22:35:08.884Z,100693.90
2023-03-17T22:37:36.839Z,100697.55
2023-03-17T22:40:06.500Z,100695.84
2023-03-17T22:42:37.369Z,100694.95
2023-03-17T22:45:06.432Z,100694.23
2023-03-17T22:47:35.057Z,100694.25
2023-03-17T22:50:03.127Z,100694.79
2023-03-17T22:52:32.926Z,100697.40
2023-03-17T22:55:02.673Z,100699.03
2023-03-17T22:57:30.975Z,100697.44
2023-03-17T22:59:59.283Z,100697.90
2023-03-17T23:02:27.430Z,100698.73
2023-03-17T23:04:55.415Z,100694.69
2023-03-17T23:07:24.366Z,100694.01
2023-03-17T23:09:52.304Z,100690.84
2023-03-17T23:12:24.630Z,100693.18
2023-03-17T23:14:53.219Z,100693.50
2023-03-17T23:17:21.879Z,100693.80
2023-03-17T23:19:49.954Z,100697.15
2023-03-17T23:22:18.316Z,100691.19
2023-03-17T23:24:47.321Z,100695.77
2023-03-17T23:27:15.760Z,100698.24
2023-03-17T23:29:44.822Z,100707.02
2023-03-17T23:32:15.616Z,100709.90
2023-03-17T23:34:45.088Z,100709.91
2023-03-17T23:37:13.145Z,100709.01
2023-03-17T23:39:41.837Z,100706.66
2023-03-17T23:42:11.323Z,100706.28
2023-03-17T23:44:41.893Z,100704.23
2023-03-17T23:47:10.604Z,100706.27
2023-03-17T23:49:39.201Z,100702.91
2023-03-17T23:52:09.242Z,100705.90
2023-03-17T23:54:38.847Z,100705.55
2023-03-17T23:57:08.092Z,100708.80
2023-03-17T23:59:36.165Z,100711.30
